sensor_id;sensor_type;location;lat;lon;timestamp;P1;durP1;ratioP1;P2;durP2;ratioP2
14326;SDS011;7247;53.330;-1.180;2023-04-03T00:01:46;10.67;;;4.87;;
14326;SDS011;7247;53.330;-1.180;2023-04-03T00:04:13;8.47;;;4.87;;
14326;SDS011;7247;53.330;-1.180;2023-04-03T00:06:41;9.40;;;4.60;;
14326;SDS011;7247;53.330;-1.180;2023-04-03T00:09:07;16.37;;;5.37;;
14326;SDS011;7247;53.330;-1.180;2023-04-03T00:11:33;12.13;;;4.50;;
14326;SDS011;7247;53.330;-1.180;2023-04-03T00:14:00;8.30;;;4.67;;
14326;SDS011;7247;53.330;-1.180;2023-04-03T00:16:26;9.63;;;4.70;;
14326;SDS011;7247;53.330;-1.180;2023-04-03T00:18:53;9.53;;;5.00;;
14326;SDS011;7247;53.330;-1.180;2023-04-03T00:21:19;9.80;;;4.60;;
14326;SDS011;7247;53.330;-1.180;2023-04-03T00:23:47;9.63;;;4.80;;
14326;SDS011;7247;53.330;-1.180;2023-04-03T00:26:13;11.20;;;4.83;;
14326;SDS011;7247;53.330;-1.180;2023-04-03T00:28:40;10.67;;;5.00;;
14326;SDS011;7247;53.330;-1.180;2023-04-03T00:31:06;9.10;;;4.80;;
14326;SDS011;7247;53.330;-1.180;2023-04-03T00:33:32;8.30;;;5.07;;
14326;SDS011;7247;53.330;-1.180;2023-04-03T00:35:59;10.33;;;4.33;;
14326;SDS011;7247;53.330;-1.180;2023-04-03T00:38:25;8.67;;;4.20;;
14326;SDS011;7247;53.330;-1.180;2023-04-03T00:40:53;11.57;;;4.87;;
14326;SDS011;7247;53.330;-1.180;2023-04-03T00:43:20;8.37;;;4.60;;
14326;SDS011;7247;53.330;-1.180;2023-04-03T00:45:47;8.43;;;5.00;;
14326;SDS011;7247;53.330;-1.180;2023-04-03T00:48:15;11.97;;;4.97;;
14326;SDS011;7247;53.330;-1.180;2023-04-03T00:50:43;9.60;;;4.67;;
14326;SDS011;7247;53.330;-1.180;2023-04-03T00:53:11;10.07;;;4.80;;
14326;SDS011;7247;53.330;-1.180;2023-04-03T00:55:39;9.50;;;5.10;;
14326;SDS011;7247;53.330;-1.180;2023-04-03T00:58:07;12.00;;;5.00;;
14326;SDS011;7247;53.330;-1.180;2023-04-03T01:00:34;7.63;;;5.20;;
14326;SDS011;7247;53.330;-1.180;2023-04-03T01:03:02;9.47;;;5.10;;
14326;SDS011;7247;53.330;-1.180;2023-04-03T01:05:28;12.37;;;5.13;;
14326;SDS011;7247;53.330;-1.180;2023-04-03T01:07:55;13.67;;;5.73;;
14326;SDS011;7247;53.330;-1.180;2023-04-03T01:10:22;11.87;;;5.33;;
14326;SDS011;7247;53.330;-1.180;2023-04-03T01:12:50;12.03;;;5.73;;
14326;SDS011;7247;53.330;-1.180;2023-04-03T01:15:19;9.57;;;5.57;;
14326;SDS011;7247;53.330;-1.180;2023-04-03T01:17:46;12.63;;;5.50;;
14326;SDS011;7247;53.330;-1.180;2023-04-03T01:22:59;12.03;;;5.57;;
14326;SDS011;7247;53.330;-1.180;2023-04-03T01:25:28;9.83;;;5.27;;
14326;SDS011;7247;53.330;-1.180;2023-04-03T01:27:55;8.53;;;5.53;;
14326;SDS011;7247;53.330;-1.180;2023-04-03T01:30:24;11.87;;;5.80;;
14326;SDS011;7247;53.330;-1.180;2023-04-03T01:32:53;10.50;;;5.83;;
14326;SDS011;7247;53.330;-1.180;2023-04-03T01:35:19;9.60;;;5.43;;
14326;SDS011;7247;53.330;-1.180;2023-04-03T01:37:46;13.90;;;6.17;;
14326;SDS011;7247;53.330;-1.180;2023-04-03T01:40:12;15.17;;;5.63;;
14326;SDS011;7247;53.330;-1.180;2023-04-03T01:42:38;17.33;;;6.07;;
14326;SDS011;7247;53.330;-1.180;2023-04-03T01:45:05;10.53;;;5.33;;
14326;SDS011;7247;53.330;-1.180;2023-04-03T01:47:31;9.83;;;5.53;;
14326;SDS011;7247;53.330;-1.180;2023-04-03T01:49:59;9.37;;;5.30;;
14326;SDS011;7247;53.330;-1.180;2023-04-03T01:52:26;12.23;;;5.50;;
14326;SDS011;7247;53.330;-1.180;2023-04-03T01:54:52;13.53;;;5.57;;
14326;SDS011;7247;53.330;-1.180;2023-04-03T01:57:19;9.63;;;5.50;;
14326;SDS011;7247;53.330;-1.180;2023-04-03T01:59:45;9.23;;;5.20;;
14326;SDS011;7247;53.330;-1.180;2023-04-03T02:02:11;9.27;;;4.83;;
14326;SDS011;7247;53.330;-1.180;2023-04-03T02:04:39;10.27;;;4.90;;
14326;SDS011;7247;53.330;-1.180;2023-04-03T02:07:07;11.00;;;5.27;;
14326;SDS011;7247;53.330;-1.180;2023-04-03T02:09:33;9.63;;;4.73;;
14326;SDS011;7247;53.330;-1.180;2023-04-03T02:12:00;9.10;;;4.67;;
14326;SDS011;7247;53.330;-1.180;2023-04-03T02:14:26;7.93;;;4.60;;
14326;SDS011;7247;53.330;-1.180;2023-04-03T02:16:53;8.97;;;4.70;;
14326;SDS011;7247;53.330;-1.180;2023-04-03T02:19:19;12.10;;;4.80;;
14326;SDS011;7247;53.330;-1.180;2023-04-03T02:21:46;11.00;;;4.53;;
14326;SDS011;7247;53.330;-1.180;2023-04-03T02:24:13;10.20;;;4.57;;
14326;SDS011;7247;53.330;-1.180;2023-04-03T02:26:40;11.73;;;4.33;;
14326;SDS011;7247;53.330;-1.180;2023-04-03T02:29:06;7.63;;;4.53;;
14326;SDS011;7247;53.330;-1.180;2023-04-03T02:31:32;10.83;;;4.30;;
14326;SDS011;7247;53.330;-1.180;2023-04-03T02:34:00;10.97;;;4.30;;
14326;SDS011;7247;53.330;-1.180;2023-04-03T02:36:26;8.90;;;4.30;;
14326;SDS011;7247;53.330;-1.180;2023-04-03T02:38:53;9.37;;;4.80;;
14326;SDS011;7247;53.330;-1.180;2023-04-03T02:41:20;7.00;;;3.90;;
14326;SDS011;7247;53.330;-1.180;2023-04-03T02:43:47;9.20;;;4.40;;
14326;SDS011;7247;53.330;-1.180;2023-04-03T02:46:13;13.13;;;4.13;;
14326;SDS011;7247;53.330;-1.180;2023-04-03T02:48:40;8.53;;;4.40;;
14326;SDS011;7247;53.330;-1.180;2023-04-03T02:51:06;7.77;;;4.50;;
14326;SDS011;7247;53.330;-1.180;2023-04-03T02:53:33;9.43;;;3.90;;
14326;SDS011;7247;53.330;-1.180;2023-04-03T02:55:59;8.27;;;4.03;;
14326;SDS011;7247;53.330;-1.180;2023-04-03T02:58:27;8.10;;;4.30;;
14326;SDS011;7247;53.330;-1.180;2023-04-03T03:00:54;7.43;;;4.00;;
14326;SDS011;7247;53.330;-1.180;2023-04-03T03:03:20;8.33;;;4.50;;
14326;SDS011;7247;53.330;-1.180;2023-04-03T03:05:46;9.53;;;4.40;;
14326;SDS011;7247;53.330;-1.180;2023-04-03T03:08:13;10.97;;;4.57;;
14326;SDS011;7247;53.330;-1.180;2023-04-03T03:10:40;8.87;;;4.30;;
14326;SDS011;7247;53.330;-1.180;2023-04-03T03:13:06;9.33;;;4.47;;
14326;SDS011;7247;53.330;-1.180;2023-04-03T03:15:34;8.80;;;4.53;;
14326;SDS011;7247;53.330;-1.180;2023-04-03T03:18:00;11.30;;;4.57;;
14326;SDS011;7247;53.330;-1.180;2023-04-03T03:20:27;6.43;;;4.40;;
14326;SDS011;7247;53.330;-1.180;2023-04-03T03:22:53;12.20;;;4.80;;
14326;SDS011;7247;53.330;-1.180;2023-04-03T03:25:19;10.17;;;4.67;;
14326;SDS011;7247;53.330;-1.180;2023-04-03T03:27:46;8.40;;;4.80;;
14326;SDS011;7247;53.330;-1.180;2023-04-03T03:30:12;8.93;;;5.00;;
14326;SDS011;7247;53.330;-1.180;2023-04-03T03:32:40;8.73;;;5.20;;
14326;SDS011;7247;53.330;-1.180;2023-04-03T03:35:07;11.03;;;5.17;;
14326;SDS011;7247;53.330;-1.180;2023-04-03T03:37:33;13.00;;;5.60;;
14326;SDS011;7247;53.330;-1.180;2023-04-03T03:39:59;11.87;;;5.47;;
14326;SDS011;7247;53.330;-1.180;2023-04-03T03:42:26;10.33;;;5.60;;
14326;SDS011;7247;53.330;-1.180;2023-04-03T03:44:52;8.83;;;5.40;;
14326;SDS011;7247;53.330;-1.180;2023-04-03T03:47:19;12.83;;;5.93;;
14326;SDS011;7247;53.330;-1.180;2023-04-03T03:49:46;14.40;;;6.00;;
14326;SDS011;7247;53.330;-1.180;2023-04-03T03:52:13;13.63;;;6.40;;
14326;SDS011;7247;53.330;-1.180;2023-04-03T03:54:39;12.67;;;6.30;;
14326;SDS011;7247;53.330;-1.180;2023-04-03T03:57:06;10.47;;;6.13;;
14326;SDS011;7247;53.330;-1.180;2023-04-03T03:59:32;9.87;;;5.60;;
14326;SDS011;7247;53.330;-1.180;2023-04-03T04:01:58;11.90;;;5.77;;
14326;SDS011;7247;53.330;-1.180;2023-04-03T04:04:25;11.43;;;6.23;;
14326;SDS011;7247;53.330;-1.180;2023-04-03T04:06:53;18.40;;;6.33;;
14326;SDS011;7247;53.330;-1.180;2023-04-03T04:09:19;16.60;;;6.10;;
14326;SDS011;7247;53.330;-1.180;2023-04-03T04:11:46;12.00;;;6.43;;
14326;SDS011;7247;53.330;-1.180;2023-04-03T04:14:13;12.77;;;6.40;;
14326;SDS011;7247;53.330;-1.180;2023-04-03T04:16:39;11.30;;;6.13;;
14326;SDS011;7247;53.330;-1.180;2023-04-03T04:19:05;11.90;;;6.30;;
14326;SDS011;7247;53.330;-1.180;2023-04-03T04:21:32;13.93;;;6.80;;
14326;SDS011;7247;53.330;-1.180;2023-04-03T04:24:00;15.20;;;6.87;;
14326;SDS011;7247;53.330;-1.180;2023-04-03T04:26:26;11.53;;;6.20;;
14326;SDS011;7247;53.330;-1.180;2023-04-03T04:28:52;14.67;;;6.47;;
14326;SDS011;7247;53.330;-1.180;2023-04-03T04:31:19;10.93;;;6.67;;
14326;SDS011;7247;53.330;-1.180;2023-04-03T04:33:45;11.67;;;6.70;;
14326;SDS011;7247;53.330;-1.180;2023-04-03T04:36:12;8.50;;;5.57;;
14326;SDS011;7247;53.330;-1.180;2023-04-03T04:38:39;10.00;;;5.87;;
14326;SDS011;7247;53.330;-1.180;2023-04-03T04:41:07;16.17;;;6.37;;
14326;SDS011;7247;53.330;-1.180;2023-04-03T04:43:33;15.03;;;6.87;;
14326;SDS011;7247;53.330;-1.180;2023-04-03T04:46:00;13.33;;;6.43;;
14326;SDS011;7247;53.330;-1.180;2023-04-03T04:48:27;12.47;;;6.17;;
14326;SDS011;7247;53.330;-1.180;2023-04-03T04:50:54;15.23;;;6.23;;
14326;SDS011;7247;53.330;-1.180;2023-04-03T04:53:20;9.50;;;5.77;;
14326;SDS011;7247;53.330;-1.180;2023-04-03T04:55:47;13.20;;;6.17;;
14326;SDS011;7247;53.330;-1.180;2023-04-03T04:58:14;11.07;;;5.87;;
14326;SDS011;7247;53.330;-1.180;2023-04-03T05:00:41;10.77;;;6.10;;
14326;SDS011;7247;53.330;-1.180;2023-04-03T05:03:07;11.03;;;5.80;;
14326;SDS011;7247;53.330;-1.180;2023-04-03T05:05:33;13.77;;;6.53;;
14326;SDS011;7247;53.330;-1.180;2023-04-03T05:08:00;12.23;;;6.63;;
14326;SDS011;7247;53.330;-1.180;2023-04-03T05:10:27;11.03;;;6.50;;
14326;SDS011;7247;53.330;-1.180;2023-04-03T05:12:53;10.40;;;6.30;;
14326;SDS011;7247;53.330;-1.180;2023-04-03T05:15:21;10.00;;;6.23;;
14326;SDS011;7247;53.330;-1.180;2023-04-03T05:17:47;12.43;;;6.30;;
14326;SDS011;7247;53.330;-1.180;2023-04-03T05:20:14;13.43;;;6.90;;
14326;SDS011;7247;53.330;-1.180;2023-04-03T05:22:40;13.87;;;7.10;;
14326;SDS011;7247;53.330;-1.180;2023-04-03T05:25:07;17.00;;;8.00;;
14326;SDS011;7247;53.330;-1.180;2023-04-03T05:27:34;18.67;;;7.97;;
14326;SDS011;7247;53.330;-1.180;2023-04-03T05:30:00;19.07;;;8.10;;
14326;SDS011;7247;53.330;-1.180;2023-04-03T05:32:28;13.50;;;7.50;;
14326;SDS011;7247;53.330;-1.180;2023-04-03T05:34:54;18.77;;;7.83;;
14326;SDS011;7247;53.330;-1.180;2023-04-03T05:37:21;15.87;;;8.33;;
14326;SDS011;7247;53.330;-1.180;2023-04-03T05:39:47;16.43;;;8.17;;
14326;SDS011;7247;53.330;-1.180;2023-04-03T05:42:13;16.70;;;8.47;;
14326;SDS011;7247;53.330;-1.180;2023-04-03T05:44:41;16.27;;;8.23;;
14326;SDS011;7247;53.330;-1.180;2023-04-03T05:47:07;14.73;;;7.57;;
14326;SDS011;7247;53.330;-1.180;2023-04-03T05:49:35;16.83;;;7.87;;
14326;SDS011;7247;53.330;-1.180;2023-04-03T05:52:05;16.80;;;7.97;;
14326;SDS011;7247;53.330;-1.180;2023-04-03T05:54:32;16.23;;;8.10;;
14326;SDS011;7247;53.330;-1.180;2023-04-03T05:56:58;12.37;;;7.83;;
14326;SDS011;7247;53.330;-1.180;2023-04-03T05:59:24;15.97;;;7.97;;
14326;SDS011;7247;53.330;-1.180;2023-04-03T06:01:51;17.50;;;8.77;;
14326;SDS011;7247;53.330;-1.180;2023-04-03T06:04:17;18.07;;;8.10;;
14326;SDS011;7247;53.330;-1.180;2023-04-03T06:06:48;16.03;;;8.10;;
14326;SDS011;7247;53.330;-1.180;2023-04-03T06:09:16;15.47;;;8.30;;
14326;SDS011;7247;53.330;-1.180;2023-04-03T06:11:43;16.27;;;7.90;;
14326;SDS011;7247;53.330;-1.180;2023-04-03T06:14:10;14.40;;;8.17;;
14326;SDS011;7247;53.330;-1.180;2023-04-03T06:16:36;12.07;;;7.80;;
14326;SDS011;7247;53.330;-1.180;2023-04-03T06:19:03;16.00;;;7.87;;
14326;SDS011;7247;53.330;-1.180;2023-04-03T06:21:31;13.20;;;7.80;;
14326;SDS011;7247;53.330;-1.180;2023-04-03T06:23:59;16.13;;;7.70;;
14326;SDS011;7247;53.330;-1.180;2023-04-03T06:26:25;17.07;;;8.27;;
14326;SDS011;7247;53.330;-1.180;2023-04-03T06:28:52;17.03;;;8.10;;
14326;SDS011;7247;53.330;-1.180;2023-04-03T06:31:18;8.97;;;6.90;;
14326;SDS011;7247;53.330;-1.180;2023-04-03T06:33:45;22.73;;;7.67;;
14326;SDS011;7247;53.330;-1.180;2023-04-03T06:36:11;12.00;;;7.00;;
14326;SDS011;7247;53.330;-1.180;2023-04-03T06:38:38;13.57;;;6.90;;
14326;SDS011;7247;53.330;-1.180;2023-04-03T06:41:06;10.57;;;6.43;;
14326;SDS011;7247;53.330;-1.180;2023-04-03T06:43:32;15.93;;;5.83;;
14326;SDS011;7247;53.330;-1.180;2023-04-03T06:45:59;11.73;;;6.30;;
14326;SDS011;7247;53.330;-1.180;2023-04-03T06:48:25;18.27;;;7.23;;
14326;SDS011;7247;53.330;-1.180;2023-04-03T06:50:51;12.37;;;6.27;;
14326;SDS011;7247;53.330;-1.180;2023-04-03T06:53:19;12.57;;;6.20;;
14326;SDS011;7247;53.330;-1.180;2023-04-03T06:55:45;11.37;;;6.27;;
14326;SDS011;7247;53.330;-1.180;2023-04-03T06:58:13;10.80;;;6.03;;
14326;SDS011;7247;53.330;-1.180;2023-04-03T07:00:42;12.53;;;5.63;;
14326;SDS011;7247;53.330;-1.180;2023-04-03T07:03:08;9.77;;;5.23;;
14326;SDS011;7247;53.330;-1.180;2023-04-03T07:05:35;11.87;;;6.00;;
14326;SDS011;7247;53.330;-1.180;2023-04-03T07:08:01;11.23;;;6.47;;
14326;SDS011;7247;53.330;-1.180;2023-04-03T07:10:28;10.60;;;5.73;;
14326;SDS011;7247;53.330;-1.180;2023-04-03T07:12:54;11.13;;;5.77;;
14326;SDS011;7247;53.330;-1.180;2023-04-03T07:15:22;14.13;;;6.30;;
14326;SDS011;7247;53.330;-1.180;2023-04-03T07:17:49;14.83;;;6.93;;
14326;SDS011;7247;53.330;-1.180;2023-04-03T07:20:16;11.90;;;5.53;;
14326;SDS011;7247;53.330;-1.180;2023-04-03T07:22:42;11.27;;;5.50;;
14326;SDS011;7247;53.330;-1.180;2023-04-03T07:25:09;10.40;;;5.07;;
14326;SDS011;7247;53.330;-1.180;2023-04-03T07:27:35;10.03;;;5.27;;
14326;SDS011;7247;53.330;-1.180;2023-04-03T07:30:03;14.00;;;4.77;;
14326;SDS011;7247;53.330;-1.180;2023-04-03T07:32:30;9.33;;;4.30;;
14326;SDS011;7247;53.330;-1.180;2023-04-03T07:34:57;7.90;;;5.23;;
14326;SDS011;7247;53.330;-1.180;2023-04-03T07:37:23;9.77;;;5.00;;
14326;SDS011;7247;53.330;-1.180;2023-04-03T07:39:50;9.07;;;4.70;;
14326;SDS011;7247;53.330;-1.180;2023-04-03T07:42:16;10.77;;;5.37;;
14326;SDS011;7247;53.330;-1.180;2023-04-03T07:44:42;8.30;;;4.60;;
14326;SDS011;7247;53.330;-1.180;2023-04-03T07:47:09;9.70;;;5.33;;
14326;SDS011;7247;53.330;-1.180;2023-04-03T07:49:37;8.70;;;4.67;;
14326;SDS011;7247;53.330;-1.180;2023-04-03T07:52:05;9.87;;;5.00;;
14326;SDS011;7247;53.330;-1.180;2023-04-03T07:54:32;7.73;;;4.60;;
14326;SDS011;7247;53.330;-1.180;2023-04-03T07:56:58;8.80;;;4.57;;
14326;SDS011;7247;53.330;-1.180;2023-04-03T07:59:25;9.23;;;4.20;;
14326;SDS011;7247;53.330;-1.180;2023-04-03T08:01:51;9.20;;;4.50;;
14326;SDS011;7247;53.330;-1.180;2023-04-03T08:04:18;9.03;;;4.50;;
14326;SDS011;7247;53.330;-1.180;2023-04-03T08:06:46;10.20;;;4.83;;
14326;SDS011;7247;53.330;-1.180;2023-04-03T08:09:12;12.17;;;5.07;;
14326;SDS011;7247;53.330;-1.180;2023-04-03T08:11:39;9.50;;;4.80;;
14326;SDS011;7247;53.330;-1.180;2023-04-03T08:14:05;9.13;;;4.67;;
14326;SDS011;7247;53.330;-1.180;2023-04-03T08:16:32;9.47;;;4.93;;
14326;SDS011;7247;53.330;-1.180;2023-04-03T08:18:58;8.37;;;5.67;;
14326;SDS011;7247;53.330;-1.180;2023-04-03T08:21:25;7.80;;;5.80;;
14326;SDS011;7247;53.330;-1.180;2023-04-03T08:23:53;9.63;;;6.10;;
14326;SDS011;7247;53.330;-1.180;2023-04-03T08:26:20;8.93;;;5.30;;
14326;SDS011;7247;53.330;-1.180;2023-04-03T08:28:46;14.07;;;5.70;;
14326;SDS011;7247;53.330;-1.180;2023-04-03T08:31:14;13.37;;;6.90;;
14326;SDS011;7247;53.330;-1.180;2023-04-03T08:33:40;11.67;;;6.83;;
14326;SDS011;7247;53.330;-1.180;2023-04-03T08:36:07;12.90;;;6.83;;
14326;SDS011;7247;53.330;-1.180;2023-04-03T08:38:34;9.30;;;4.20;;
14326;SDS011;7247;53.330;-1.180;2023-04-03T08:41:06;6.07;;;3.40;;
14326;SDS011;7247;53.330;-1.180;2023-04-03T08:43:36;8.87;;;3.40;;
14326;SDS011;7247;53.330;-1.180;2023-04-03T08:46:06;8.37;;;3.13;;
14326;SDS011;7247;53.330;-1.180;2023-04-03T08:48:38;8.57;;;3.47;;
14326;SDS011;7247;53.330;-1.180;2023-04-03T08:51:08;7.50;;;3.33;;
14326;SDS011;7247;53.330;-1.180;2023-04-03T08:53:39;7.87;;;3.70;;
14326;SDS011;7247;53.330;-1.180;2023-04-03T08:56:08;7.57;;;3.60;;
14326;SDS011;7247;53.330;-1.180;2023-04-03T08:58:36;8.60;;;3.13;;
14326;SDS011;7247;53.330;-1.180;2023-04-03T09:01:07;4.70;;;2.87;;
14326;SDS011;7247;53.330;-1.180;2023-04-03T09:03:41;4.87;;;2.40;;
14326;SDS011;7247;53.330;-1.180;2023-04-03T09:06:10;8.23;;;3.00;;
14326;SDS011;7247;53.330;-1.180;2023-04-03T09:08:39;10.10;;;3.30;;
14326;SDS011;7247;53.330;-1.180;2023-04-03T09:11:12;5.23;;;2.83;;
14326;SDS011;7247;53.330;-1.180;2023-04-03T09:13:43;5.47;;;2.43;;
14326;SDS011;7247;53.330;-1.180;2023-04-03T09:16:15;8.50;;;3.20;;
14326;SDS011;7247;53.330;-1.180;2023-04-03T09:18:45;7.87;;;2.90;;
14326;SDS011;7247;53.330;-1.180;2023-04-03T09:21:13;6.73;;;2.00;;
14326;SDS011;7247;53.330;-1.180;2023-04-03T09:23:43;6.03;;;1.93;;
14326;SDS011;7247;53.330;-1.180;2023-04-03T09:26:13;6.50;;;2.33;;
14326;SDS011;7247;53.330;-1.180;2023-04-03T09:28:40;4.77;;;2.37;;
14326;SDS011;7247;53.330;-1.180;2023-04-03T09:31:11;7.07;;;2.40;;
14326;SDS011;7247;53.330;-1.180;2023-04-03T09:33:41;9.43;;;2.40;;
14326;SDS011;7247;53.330;-1.180;2023-04-03T09:36:08;7.67;;;2.20;;
14326;SDS011;7247;53.330;-1.180;2023-04-03T09:38:34;7.30;;;1.50;;
14326;SDS011;7247;53.330;-1.180;2023-04-03T09:41:05;8.03;;;1.97;;
14326;SDS011;7247;53.330;-1.180;2023-04-03T09:43:34;4.47;;;1.80;;
14326;SDS011;7247;53.330;-1.180;2023-04-03T09:48:49;6.60;;;1.80;;
14326;SDS011;7247;53.330;-1.180;2023-04-03T09:51:16;5.03;;;1.87;;
14326;SDS011;7247;53.330;-1.180;2023-04-03T09:53:43;4.33;;;1.87;;
14326;SDS011;7247;53.330;-1.180;2023-04-03T09:56:18;8.47;;;1.93;;
14326;SDS011;7247;53.330;-1.180;2023-04-03T09:58:48;8.53;;;1.93;;
14326;SDS011;7247;53.330;-1.180;2023-04-03T10:01:22;6.47;;;1.97;;
14326;SDS011;7247;53.330;-1.180;2023-04-03T10:04:01;5.90;;;1.93;;
14326;SDS011;7247;53.330;-1.180;2023-04-03T10:06:29;5.53;;;1.93;;
14326;SDS011;7247;53.330;-1.180;2023-04-03T10:08:58;6.37;;;2.00;;
14326;SDS011;7247;53.330;-1.180;2023-04-03T10:11:26;7.40;;;1.90;;
14326;SDS011;7247;53.330;-1.180;2023-04-03T10:13:55;6.23;;;2.10;;
14326;SDS011;7247;53.330;-1.180;2023-04-03T10:16:25;4.40;;;1.93;;
14326;SDS011;7247;53.330;-1.180;2023-04-03T10:18:55;7.47;;;2.00;;
14326;SDS011;7247;53.330;-1.180;2023-04-03T10:21:29;4.03;;;1.97;;
14326;SDS011;7247;53.330;-1.180;2023-04-03T10:24:01;5.50;;;2.00;;
14326;SDS011;7247;53.330;-1.180;2023-04-03T10:26:32;7.77;;;2.40;;
14326;SDS011;7247;53.330;-1.180;2023-04-03T10:29:06;4.37;;;2.03;;
14326;SDS011;7247;53.330;-1.180;2023-04-03T10:31:36;7.70;;;2.03;;
14326;SDS011;7247;53.330;-1.180;2023-04-03T10:34:04;6.97;;;2.00;;
14326;SDS011;7247;53.330;-1.180;2023-04-03T10:36:37;6.40;;;2.30;;
14326;SDS011;7247;53.330;-1.180;2023-04-03T10:39:06;4.27;;;2.40;;
14326;SDS011;7247;53.330;-1.180;2023-04-03T10:41:41;5.43;;;1.63;;
14326;SDS011;7247;53.330;-1.180;2023-04-03T10:44:18;8.63;;;2.20;;
14326;SDS011;7247;53.330;-1.180;2023-04-03T10:46:48;7.60;;;2.03;;
14326;SDS011;7247;53.330;-1.180;2023-04-03T10:49:21;6.60;;;2.10;;
14326;SDS011;7247;53.330;-1.180;2023-04-03T10:51:53;6.40;;;2.00;;
14326;SDS011;7247;53.330;-1.180;2023-04-03T10:54:25;5.00;;;1.80;;
14326;SDS011;7247;53.330;-1.180;2023-04-03T10:56:52;6.10;;;1.90;;
14326;SDS011;7247;53.330;-1.180;2023-04-03T10:59:23;7.37;;;1.80;;
14326;SDS011;7247;53.330;-1.180;2023-04-03T11:01:52;9.83;;;2.23;;
14326;SDS011;7247;53.330;-1.180;2023-04-03T11:04:20;8.43;;;2.00;;
14326;SDS011;7247;53.330;-1.180;2023-04-03T11:06:48;4.53;;;1.90;;
14326;SDS011;7247;53.330;-1.180;2023-04-03T11:09:18;4.30;;;1.80;;
14326;SDS011;7247;53.330;-1.180;2023-04-03T11:11:45;8.50;;;2.00;;
14326;SDS011;7247;53.330;-1.180;2023-04-03T11:14:14;5.50;;;2.00;;
14326;SDS011;7247;53.330;-1.180;2023-04-03T11:16:46;7.63;;;2.27;;
14326;SDS011;7247;53.330;-1.180;2023-04-03T11:19:14;6.07;;;1.97;;
14326;SDS011;7247;53.330;-1.180;2023-04-03T11:21:47;5.23;;;1.93;;
14326;SDS011;7247;53.330;-1.180;2023-04-03T11:24:19;6.97;;;2.20;;
14326;SDS011;7247;53.330;-1.180;2023-04-03T11:26:47;7.27;;;1.90;;
14326;SDS011;7247;53.330;-1.180;2023-04-03T11:29:17;6.87;;;2.17;;
14326;SDS011;7247;53.330;-1.180;2023-04-03T11:31:52;5.60;;;1.90;;
14326;SDS011;7247;53.330;-1.180;2023-04-03T11:34:26;5.40;;;1.80;;
14326;SDS011;7247;53.330;-1.180;2023-04-03T11:36:57;8.33;;;2.23;;
14326;SDS011;7247;53.330;-1.180;2023-04-03T11:39:25;6.87;;;2.23;;
14326;SDS011;7247;53.330;-1.180;2023-04-03T11:41:53;5.27;;;2.00;;
14326;SDS011;7247;53.330;-1.180;2023-04-03T11:44:28;4.83;;;1.93;;
14326;SDS011;7247;53.330;-1.180;2023-04-03T11:46:57;5.40;;;2.00;;
14326;SDS011;7247;53.330;-1.180;2023-04-03T11:52:09;5.77;;;2.20;;
14326;SDS011;7247;53.330;-1.180;2023-04-03T11:54:46;6.73;;;2.50;;
14326;SDS011;7247;53.330;-1.180;2023-04-03T12:02:46;7.20;;;1.90;;
14326;SDS011;7247;53.330;-1.180;2023-04-03T12:05:24;5.60;;;2.17;;
14326;SDS011;7247;53.330;-1.180;2023-04-03T12:10:33;5.90;;;2.20;;
14326;SDS011;7247;53.330;-1.180;2023-04-03T12:13:00;8.30;;;2.27;;
14326;SDS011;7247;53.330;-1.180;2023-04-03T12:18:39;5.43;;;2.27;;
14326;SDS011;7247;53.330;-1.180;2023-04-03T12:21:06;5.73;;;2.30;;
14326;SDS011;7247;53.330;-1.180;2023-04-03T12:23:33;3.60;;;2.17;;
14326;SDS011;7247;53.330;-1.180;2023-04-03T12:26:01;4.27;;;2.30;;
14326;SDS011;7247;53.330;-1.180;2023-04-03T12:28:31;4.63;;;2.10;;
14326;SDS011;7247;53.330;-1.180;2023-04-03T12:31:02;12.03;;;3.07;;
14326;SDS011;7247;53.330;-1.180;2023-04-03T12:33:32;5.90;;;2.57;;
14326;SDS011;7247;53.330;-1.180;2023-04-03T12:36:07;4.53;;;2.30;;
14326;SDS011;7247;53.330;-1.180;2023-04-03T12:38:41;5.07;;;2.20;;
14326;SDS011;7247;53.330;-1.180;2023-04-03T12:41:17;10.85;;;3.40;;
14326;SDS011;7247;53.330;-1.180;2023-04-03T12:43:47;18.45;;;3.63;;
14326;SDS011;7247;53.330;-1.180;2023-04-03T12:46:17;3.97;;;2.10;;
14326;SDS011;7247;53.330;-1.180;2023-04-03T12:48:47;5.05;;;2.20;;
14326;SDS011;7247;53.330;-1.180;2023-04-03T12:51:17;6.25;;;2.47;;
14326;SDS011;7247;53.330;-1.180;2023-04-03T12:53:44;7.45;;;2.47;;
14326;SDS011;7247;53.330;-1.180;2023-04-03T12:56:22;5.85;;;2.70;;
14326;SDS011;7247;53.330;-1.180;2023-04-03T12:58:50;7.15;;;2.20;;
14326;SDS011;7247;53.330;-1.180;2023-04-03T13:01:17;5.03;;;2.20;;
14326;SDS011;7247;53.330;-1.180;2023-04-03T13:03:47;5.47;;;2.25;;
14326;SDS011;7247;53.330;-1.180;2023-04-03T13:06:17;6.15;;;2.20;;
14326;SDS011;7247;53.330;-1.180;2023-04-03T13:08:54;5.10;;;2.25;;
14326;SDS011;7247;53.330;-1.180;2023-04-03T13:11:22;4.50;;;2.22;;
14326;SDS011;7247;53.330;-1.180;2023-04-03T13:13:56;5.32;;;2.20;;
14326;SDS011;7247;53.330;-1.180;2023-04-03T13:16:22;4.68;;;2.20;;
14326;SDS011;7247;53.330;-1.180;2023-04-03T13:18:50;6.68;;;2.47;;
14326;SDS011;7247;53.330;-1.180;2023-04-03T13:21:18;5.03;;;2.05;;
14326;SDS011;7247;53.330;-1.180;2023-04-03T13:23:46;4.95;;;2.15;;
14326;SDS011;7247;53.330;-1.180;2023-04-03T13:26:14;5.60;;;2.45;;
14326;SDS011;7247;53.330;-1.180;2023-04-03T13:28:41;3.90;;;2.00;;
14326;SDS011;7247;53.330;-1.180;2023-04-03T13:31:09;7.43;;;2.33;;
14326;SDS011;7247;53.330;-1.180;2023-04-03T13:33:43;5.85;;;2.35;;
14326;SDS011;7247;53.330;-1.180;2023-04-03T13:36:29;3.45;;;2.00;;
14326;SDS011;7247;53.330;-1.180;2023-04-03T13:39:03;3.03;;;2.00;;
14326;SDS011;7247;53.330;-1.180;2023-04-03T13:41:30;5.10;;;2.03;;
14326;SDS011;7247;53.330;-1.180;2023-04-03T13:43:57;4.38;;;2.25;;
14326;SDS011;7247;53.330;-1.180;2023-04-03T13:46:40;3.10;;;1.77;;
14326;SDS011;7247;53.330;-1.180;2023-04-03T13:49:16;4.30;;;1.90;;
14326;SDS011;7247;53.330;-1.180;2023-04-03T13:51:44;4.38;;;2.20;;
14326;SDS011;7247;53.330;-1.180;2023-04-03T13:54:16;3.85;;;2.15;;
14326;SDS011;7247;53.330;-1.180;2023-04-03T13:56:43;4.43;;;2.05;;
14326;SDS011;7247;53.330;-1.180;2023-04-03T13:59:20;4.20;;;2.30;;
14326;SDS011;7247;53.330;-1.180;2023-04-03T14:01:48;4.50;;;2.20;;
14326;SDS011;7247;53.330;-1.180;2023-04-03T14:04:17;6.57;;;2.30;;
14326;SDS011;7247;53.330;-1.180;2023-04-03T14:06:45;4.35;;;2.40;;
14326;SDS011;7247;53.330;-1.180;2023-04-03T14:09:11;5.63;;;2.30;;
14326;SDS011;7247;53.330;-1.180;2023-04-03T14:11:38;4.40;;;2.33;;
14326;SDS011;7247;53.330;-1.180;2023-04-03T14:14:06;5.32;;;2.50;;
14326;SDS011;7247;53.330;-1.180;2023-04-03T14:16:37;6.82;;;2.40;;
14326;SDS011;7247;53.330;-1.180;2023-04-03T14:19:03;3.63;;;2.47;;
14326;SDS011;7247;53.330;-1.180;2023-04-03T14:21:30;5.50;;;2.67;;
14326;SDS011;7247;53.330;-1.180;2023-04-03T14:23:58;4.55;;;2.70;;
14326;SDS011;7247;53.330;-1.180;2023-04-03T14:26:25;5.15;;;2.63;;
14326;SDS011;7247;53.330;-1.180;2023-04-03T14:28:53;5.70;;;2.70;;
14326;SDS011;7247;53.330;-1.180;2023-04-03T14:31:20;3.80;;;2.50;;
14326;SDS011;7247;53.330;-1.180;2023-04-03T14:33:47;5.05;;;2.88;;
14326;SDS011;7247;53.330;-1.180;2023-04-03T14:36:14;4.20;;;2.40;;
14326;SDS011;7247;53.330;-1.180;2023-04-03T14:38:40;6.03;;;2.67;;
14326;SDS011;7247;53.330;-1.180;2023-04-03T14:41:09;5.82;;;2.90;;
14326;SDS011;7247;53.330;-1.180;2023-04-03T14:43:37;6.60;;;3.13;;
14326;SDS011;7247;53.330;-1.180;2023-04-03T14:46:04;4.05;;;2.72;;
14326;SDS011;7247;53.330;-1.180;2023-04-03T14:48:30;6.53;;;2.67;;
14326;SDS011;7247;53.330;-1.180;2023-04-03T14:50:57;4.85;;;2.90;;
14326;SDS011;7247;53.330;-1.180;2023-04-03T14:53:23;4.75;;;2.53;;
14326;SDS011;7247;53.330;-1.180;2023-04-03T14:55:51;6.25;;;2.83;;
14326;SDS011;7247;53.330;-1.180;2023-04-03T14:58:19;5.03;;;3.13;;
14326;SDS011;7247;53.330;-1.180;2023-04-03T15:00:46;37.90;;;16.33;;
14326;SDS011;7247;53.330;-1.180;2023-04-03T15:03:13;4.07;;;2.63;;
14326;SDS011;7247;53.330;-1.180;2023-04-03T15:05:40;4.68;;;2.25;;
14326;SDS011;7247;53.330;-1.180;2023-04-03T15:08:08;4.93;;;2.50;;